KAQV

Peason Ridge Airport

Fort Polk, Louisiana, USA
METAR KAQV 161256Z AUTO VRB03KT 10SM CLR 04/00 A3021 RMK AO2 SLP233 T00390000
Observed Flight Rules
Nov-16 @ 12:56 UTC (3 hours ago) Visual Flight Rules
Wind Visibility Clouds
Variable at 3 knots 10 miles
  • Clear skies
Temperatures Readings
Current 4°C / 39°F
Dewpoint 0°C / 32°F
Humidity 75%
Altimeter 30.21" Hg
Pressure 1023.3 hPa
Elevation 111
METAR KAQV 161256Z AUTO VRB03KT 10SM CLR 04/00 A3021 RMK AO2 SLP233 T00390000
Observed Flight Rules
Nov-16 @ 12:56 UTC
(3 hours ago)
VFR
Wind Visibility
Variable at 3 knots 10 miles
Clouds
  • Clear skies
Temperature Dewpoint
4°C / 39°F 0°C / 32°F
Humidity Altimeter Pressure
75% 30.21" Hg 1023.3 hPa